Time;durP1;ratioP1;P1;durP2;ratioP2;P2;SDS_P1;SDS_P2;PMS_P1;PMS_P2;Temp;Humidity;BMP_temperature;BMP_pressure;BME280_temperature;BME280_humidity;BME280_pressure;Samples;Min_cycle;Max_cycle;Signal;HPM_P1;HPM_P2
2022/12/26 00:00:52;;;;;;;3.70;2.60;;;11.40;99.90;;;;;;5043085;28;20464;-35
2022/12/26 00:03:18;;;;;;;4.10;3.00;;;11.40;99.90;;;;;;5041912;28;20420;-39
2022/12/26 00:05:43;;;;;;;3.87;3.50;;;11.40;99.90;;;;;;5030681;28;20448;-36
2022/12/26 00:08:09;;;;;;;6.10;4.03;;;11.40;99.90;;;;;;5030554;28;20216;-38
2022/12/26 00:10:34;;;;;;;5.70;4.50;;;11.40;99.90;;;;;;5035800;28;20585;-38
2022/12/26 00:13:00;;;;;;;6.10;3.90;;;11.50;99.90;;;;;;5046118;28;20224;-36
2022/12/26 00:15:26;;;;;;;5.07;4.57;;;11.50;99.90;;;;;;5029805;28;20308;-36
2022/12/26 00:17:51;;;;;;;5.07;4.53;;;11.50;99.90;;;;;;5030067;28;20201;-35
2022/12/26 00:20:17;;;;;;;5.63;4.53;;;11.50;99.90;;;;;;5029829;28;20344;-33
2022/12/26 00:22:43;;;;;;;5.37;4.80;;;11.50;99.90;;;;;;5029773;28;20214;-34
2022/12/26 00:25:08;;;;;;;4.90;4.40;;;11.50;99.90;;;;;;5028276;28;20229;-35
2022/12/26 00:27:34;;;;;;;5.90;4.07;;;11.40;99.90;;;;;;5029620;28;20186;-37
2022/12/26 00:30:00;;;;;;;4.10;3.70;;;11.50;99.90;;;;;;5028418;28;20190;-38
2022/12/26 00:32:26;;;;;;;4.23;3.83;;;11.50;99.90;;;;;;5029931;28;20244;-35
2022/12/26 00:34:51;;;;;;;5.13;4.37;;;11.50;99.90;;;;;;5029192;28;20198;-37
2022/12/26 00:37:17;;;;;;;5.53;5.00;;;11.50;99.90;;;;;;5029246;28;20440;-33
2022/12/26 00:39:42;;;;;;;5.83;5.33;;;11.50;99.90;;;;;;5029513;28;20194;-37
2022/12/26 00:42:08;;;;;;;5.53;5.03;;;11.50;99.90;;;;;;5029525;28;20222;-34
2022/12/26 00:44:34;;;;;;;6.83;5.40;;;11.40;99.90;;;;;;5027371;28;20199;-36
2022/12/26 00:46:59;;;;;;;5.90;5.30;;;11.50;99.90;;;;;;5028945;28;20738;-40
2022/12/26 00:49:25;;;;;;;6.37;5.87;;;11.50;99.90;;;;;;5028790;28;20580;-39
2022/12/26 00:51:51;;;;;;;6.27;5.67;;;11.50;99.90;;;;;;5041007;28;20193;-38
2022/12/26 00:54:16;;;;;;;6.10;5.50;;;11.50;99.90;;;;;;5048371;28;20186;-39
2022/12/26 00:56:42;;;;;;;7.00;5.60;;;11.50;99.90;;;;;;5049061;28;20197;-36
2022/12/26 00:59:08;;;;;;;6.00;5.37;;;11.50;99.90;;;;;;5049384;28;20212;-39
2022/12/26 01:01:33;;;;;;;4.83;4.23;;;11.50;99.90;;;;;;5037235;28;20267;-36
2022/12/26 01:03:59;;;;;;;5.60;4.60;;;11.40;99.90;;;;;;5028332;28;20256;-39
2022/12/26 01:06:25;;;;;;;5.00;4.03;;;11.50;99.90;;;;;;5028732;28;20174;-39
2022/12/26 01:08:52;;;;;;;3.80;3.20;;;11.40;99.90;;;;;;5029155;28;20671;-39
2022/12/26 01:14:03;;;;;;;4.33;3.50;;;11.40;99.90;;;;;;5028345;28;20429;-35
2022/12/26 01:16:28;;;;;;;6.23;4.03;;;11.40;99.90;;;;;;5028740;28;20513;-36
2022/12/26 01:18:54;;;;;;;5.47;4.53;;;11.40;99.90;;;;;;5028537;28;20957;-37
2022/12/26 01:21:20;;;;;;;7.07;4.87;;;11.40;99.90;;;;;;5028745;28;20257;-36
2022/12/26 01:23:45;;;;;;;6.00;5.23;;;11.40;99.90;;;;;;5027792;28;20213;-35
2022/12/26 01:26:11;;;;;;;5.97;5.37;;;11.40;99.90;;;;;;5026511;28;20190;-36
2022/12/26 01:28:36;;;;;;;6.77;5.50;;;11.40;99.90;;;;;;5026698;28;20217;-35
2022/12/26 01:31:03;;;;;;;6.33;5.70;;;11.40;99.90;;;;;;5028692;28;20194;-35
2022/12/26 01:33:30;;;;;;;8.27;5.67;;;11.40;99.90;;;;;;5027780;28;20289;-33
2022/12/26 01:35:56;;;;;;;6.50;5.90;;;11.40;99.90;;;;;;5028366;28;20436;-39
2022/12/26 01:38:21;;;;;;;7.37;5.57;;;11.40;99.90;;;;;;5028414;28;20452;-38
2022/12/26 01:41:15;;;;;;;5.20;4.70;;;11.40;99.90;;;;;;5028116;28;20222;-34
2022/12/26 01:44:05;;;;;;;4.10;3.70;;;11.40;99.90;;;;;;5027645;28;20190;-39
2022/12/26 01:46:34;;;;;;;3.40;3.07;;;11.40;99.90;;;;;;5020205;28;20429;-38
2022/12/26 01:49:07;;;;;;;3.00;2.70;;;11.40;99.90;;;;;;5028358;28;20429;-38
2022/12/26 01:51:38;;;;;;;2.60;2.40;;;11.40;99.90;;;;;;5027978;28;20979;-35
2022/12/26 01:54:08;;;;;;;3.33;2.40;;;11.40;99.90;;;;;;5027834;28;20548;-35
2022/12/26 01:56:38;;;;;;;4.33;2.60;;;11.40;99.90;;;;;;5028134;28;20425;-39
2022/12/26 01:59:10;;;;;;;3.17;2.27;;;11.40;99.90;;;;;;5031146;28;20420;-36
2022/12/26 02:01:38;;;;;;;2.40;2.10;;;11.40;99.90;;;;;;5048300;28;20494;-36
2022/12/26 02:06:52;;;;;;;2.20;2.00;;;11.40;99.90;;;;;;5048538;28;20506;-37
2022/12/26 02:09:19;;;;;;;2.60;2.40;;;11.40;99.90;;;;;;5046328;28;20495;-38
2022/12/26 02:11:53;;;;;;;3.23;2.50;;;11.30;99.90;;;;;;5048183;28;20189;-36
2022/12/26 02:14:19;;;;;;;3.83;2.70;;;11.30;99.90;;;;;;5045844;28;20420;-38
2022/12/26 02:16:45;;;;;;;3.00;2.47;;;11.30;99.90;;;;;;5047857;28;20424;-38
2022/12/26 02:20:00;;;;;;;2.50;2.30;;;11.30;99.90;;;;;;5047725;28;20427;-38
2022/12/26 02:22:47;;;;;;;2.83;2.53;;;11.30;99.90;;;;;;5045377;28;20487;-37
2022/12/26 02:25:46;;;;;;;2.63;2.37;;;11.40;99.90;;;;;;5045968;28;20448;-36
2022/12/26 02:28:21;;;;;;;2.00;1.80;;;11.40;99.90;;;;;;5047968;28;20436;-37
2022/12/26 02:30:57;;;;;;;2.47;2.20;;;11.40;99.90;;;;;;5047895;28;20447;-38
2022/12/26 02:33:36;;;;;;;2.77;2.47;;;11.40;99.90;;;;;;5047069;28;20456;-38
2022/12/26 02:36:29;;;;;;;2.57;2.37;;;11.40;99.90;;;;;;5047728;28;20514;-32
2022/12/26 02:39:22;;;;;;;2.90;2.67;;;11.30;99.90;;;;;;5047853;28;20976;-36
2022/12/26 02:42:00;;;;;;;2.60;2.40;;;11.40;99.90;;;;;;5047315;28;20573;-32
2022/12/26 02:47:41;;;;;;;3.73;2.30;;;11.40;99.90;;;;;;5047398;28;20782;-33
2022/12/26 03:13:15;;;;;;;2.60;2.40;;;11.30;99.90;;;;;;5050645;28;20432;-35
2022/12/26 03:18:40;;;;;;;3.13;2.83;;;11.30;99.90;;;;;;5051268;28;20412;-35
2022/12/26 03:21:07;;;;;;;2.60;2.40;;;11.30;99.90;;;;;;5050809;28;20823;-37
2022/12/26 03:23:35;;;;;;;4.10;3.30;;;11.20;99.90;;;;;;5050639;28;20473;-39
2022/12/26 03:30:47;;;;;;;2.87;2.67;;;11.20;99.90;;;;;;5050718;28;20511;-37
2022/12/26 03:31:40;;;;;;;3.83;2.83;;;11.20;99.90;;;;;;5050701;28;20527;-33
2022/12/26 03:34:18;;;;;;;3.67;3.37;;;11.20;99.90;;;;;;5049889;28;20500;-38
2022/12/26 03:37:01;;;;;;;3.20;2.90;;;11.20;99.90;;;;;;5050965;28;20597;-38
2022/12/26 04:21:03;;;;;;;3.10;2.90;;;11.10;99.90;;;;;;5050309;28;20417;-38
2022/12/26 04:46:20;;;;;;;5.00;4.07;;;11.00;99.90;;;;;;5049194;28;20412;-33
2022/12/26 04:51:33;;;;;;;3.30;3.00;;;11.00;99.90;;;;;;5049427;28;20789;-34
2022/12/26 04:53:59;;;;;;;4.80;3.93;;;11.00;99.90;;;;;;5048511;28;20416;-37
2022/12/26 04:56:24;;;;;;;4.23;3.30;;;11.00;99.90;;;;;;5049388;28;20834;-38
2022/12/26 04:58:51;;;;;;;3.97;3.57;;;11.00;99.90;;;;;;5048931;28;20746;-36
2022/12/26 05:09:36;;;;;;;3.80;3.50;;;10.90;99.90;;;;;;5048548;28;20420;-35
2022/12/26 05:12:04;;;;;;;3.60;3.30;;;10.90;99.90;;;;;;5048971;28;20852;-35
2022/12/26 05:14:31;;;;;;;4.73;3.23;;;10.80;99.90;;;;;;5046780;28;20498;-35
2022/12/26 05:30:56;;;;;;;3.77;3.47;;;10.70;99.90;;;;;;5048816;28;20416;-37
2022/12/26 05:36:07;;;;;;;4.27;3.87;;;10.70;99.90;;;;;;5049010;28;20186;-37
2022/12/26 05:38:34;;;;;;;3.30;3.00;;;10.70;99.90;;;;;;5048363;28;20423;-37
2022/12/26 05:40:59;;;;;;;3.87;3.47;;;10.70;99.90;;;;;;5048317;28;20537;-32
2022/12/26 05:43:25;;;;;;;3.30;3.00;;;10.70;99.90;;;;;;5041206;28;20533;-38
2022/12/26 05:45:51;;;;;;;2.93;2.73;;;10.70;99.90;;;;;;5047577;28;20345;-36
2022/12/26 05:48:16;;;;;;;3.10;2.73;;;10.70;99.90;;;;;;5048097;28;20185;-36
2022/12/26 05:50:42;;;;;;;3.07;2.80;;;10.70;99.90;;;;;;5048350;28;20174;-34
2022/12/26 05:53:08;;;;;;;3.70;3.40;;;10.70;99.90;;;;;;5046319;28;20190;-34
2022/12/26 05:55:33;;;;;;;3.30;3.00;;;10.60;99.90;;;;;;5047780;28;20181;-38
2022/12/26 05:58:00;;;;;;;3.47;3.17;;;10.60;99.90;;;;;;5048427;28;20175;-35
2022/12/26 06:00:26;;;;;;;4.00;3.60;;;10.60;99.90;;;;;;5047989;28;20218;-36
2022/12/26 06:02:52;;;;;;;3.47;3.17;;;10.60;99.90;;;;;;5048144;28;20467;-37
2022/12/26 06:05:18;;;;;;;4.10;3.37;;;10.60;99.90;;;;;;5047401;28;20440;-33
2022/12/26 06:07:43;;;;;;;4.60;3.00;;;10.60;99.90;;;;;;5047979;28;20427;-37
2022/12/26 06:10:10;;;;;;;3.63;3.33;;;10.60;99.90;;;;;;5048061;28;20250;-37
2022/12/26 06:12:36;;;;;;;4.13;3.13;;;10.60;99.90;;;;;;5047865;28;20185;-38
2022/12/26 06:15:01;;;;;;;4.10;3.70;;;10.60;99.90;;;;;;5047538;28;20910;-38
2022/12/26 06:17:27;;;;;;;3.80;3.07;;;10.60;99.90;;;;;;5048041;28;20424;-35
2022/12/26 06:19:53;;;;;;;4.60;3.80;;;10.60;99.90;;;;;;5048145;28;20186;-38
2022/12/26 06:22:19;;;;;;;4.07;3.67;;;10.60;99.90;;;;;;5047883;28;20623;-36
2022/12/26 06:24:44;;;;;;;4.13;3.73;;;10.60;99.90;;;;;;5046015;28;20201;-40
2022/12/26 06:27:10;;;;;;;4.20;3.80;;;10.70;99.90;;;;;;5048185;28;20209;-38
2022/12/26 06:29:36;;;;;;;3.97;3.50;;;10.60;99.90;;;;;;5047588;28;20185;-37
2022/12/26 06:32:02;;;;;;;4.40;3.87;;;10.60;99.90;;;;;;5048248;28;20199;-35
2022/12/26 06:34:27;;;;;;;5.17;3.80;;;10.70;99.90;;;;;;5046838;28;20189;-37
2022/12/26 06:36:54;;;;;;;4.20;3.80;;;10.70;99.90;;;;;;5050743;28;20427;-38
2022/12/26 06:39:20;;;;;;;4.30;3.83;;;10.70;99.90;;;;;;5051784;28;20238;-40
2022/12/26 06:41:46;;;;;;;4.50;4.10;;;10.70;99.90;;;;;;5051733;28;20499;-38
2022/12/26 06:44:12;;;;;;;4.23;3.83;;;10.60;99.90;;;;;;5051205;28;20919;-39
2022/12/26 06:46:38;;;;;;;4.83;4.37;;;10.70;99.90;;;;;;5051536;28;20412;-40
2022/12/26 06:49:07;;;;;;;4.83;4.07;;;10.70;99.90;;;;;;5051961;28;20499;-36
2022/12/26 06:51:34;;;;;;;4.80;4.10;;;10.60;99.90;;;;;;5051404;28;20185;-34
2022/12/26 06:54:03;;;;;;;4.33;3.93;;;10.70;99.90;;;;;;5050915;28;20424;-37
2022/12/26 06:56:30;;;;;;;5.27;4.23;;;10.70;99.90;;;;;;5051657;28;21152;-36
2022/12/26 06:59:01;;;;;;;4.83;4.10;;;10.60;99.90;;;;;;5051494;28;20805;-38
2022/12/26 07:01:28;;;;;;;6.57;3.83;;;10.60;99.90;;;;;;5051616;28;20876;-38
2022/12/26 07:03:54;;;;;;;4.43;4.00;;;10.60;99.90;;;;;;5050401;28;20436;-38
2022/12/26 07:06:35;;;;;;;4.97;4.50;;;10.60;99.90;;;;;;5051285;28;20834;-37
2022/12/26 07:09:02;;;;;;;3.33;3.03;;;10.70;99.90;;;;;;5051284;28;20416;-38
2022/12/26 07:11:31;;;;;;;6.43;3.53;;;10.70;99.90;;;;;;5051538;28;20435;-41
2022/12/26 07:13:57;;;;;;;3.73;3.03;;;10.60;99.90;;;;;;5050538;28;20424;-39
2022/12/26 07:16:23;;;;;;;4.07;2.70;;;10.60;99.90;;;;;;5051112;28;20431;-39
2022/12/26 07:18:52;;;;;;;3.30;2.80;;;10.60;99.90;;;;;;5051077;28;20193;-37
2022/12/26 07:21:17;;;;;;;3.30;3.00;;;10.60;99.90;;;;;;5050891;28;20475;-40
2022/12/26 07:23:43;;;;;;;3.43;2.80;;;10.70;99.90;;;;;;5049331;28;20424;-38
2022/12/26 07:26:09;;;;;;;3.67;3.30;;;10.60;99.90;;;;;;5049335;28;20181;-36
2022/12/26 07:28:35;;;;;;;3.60;3.30;;;10.60;99.90;;;;;;5051132;28;20174;-36
2022/12/26 07:31:01;;;;;;;3.53;2.93;;;10.70;99.90;;;;;;5049500;28;20474;-37
2022/12/26 07:33:28;;;;;;;4.27;3.70;;;10.70;99.90;;;;;;5050067;28;20686;-36
2022/12/26 07:35:57;;;;;;;4.83;4.43;;;10.70;99.90;;;;;;5050678;28;20420;-34
2022/12/26 07:38:23;;;;;;;4.87;4.37;;;10.70;99.90;;;;;;5050727;28;20424;-40
2022/12/26 07:40:48;;;;;;;5.53;4.70;;;10.70;99.90;;;;;;5050583;28;20423;-39
2022/12/26 07:43:14;;;;;;;4.57;4.13;;;10.70;99.90;;;;;;5041137;28;20640;-40
2022/12/26 07:45:40;;;;;;;6.67;5.13;;;10.70;99.90;;;;;;5051019;28;20190;-41
2022/12/26 07:48:05;;;;;;;5.07;4.67;;;10.80;99.90;;;;;;5049501;28;20185;-36
2022/12/26 07:50:31;;;;;;;5.13;4.57;;;10.80;99.90;;;;;;5050709;28;20213;-35
2022/12/26 07:52:59;;;;;;;4.60;4.20;;;10.80;99.90;;;;;;5049731;28;20605;-39
2022/12/26 07:55:24;;;;;;;5.53;5.00;;;10.80;99.90;;;;;;5050402;28;20606;-39
2022/12/26 07:57:51;;;;;;;5.20;4.70;;;10.70;99.90;;;;;;5050979;28;20520;-40
2022/12/26 08:00:18;;;;;;;5.03;4.57;;;10.80;99.90;;;;;;5041931;28;20189;-35
2022/12/26 08:02:46;;;;;;;5.53;4.63;;;10.70;99.90;;;;;;5041068;28;20469;-37
2022/12/26 08:05:11;;;;;;;6.30;4.60;;;10.70;99.90;;;;;;5047292;28;20600;-41
2022/12/26 08:07:37;;;;;;;4.77;4.37;;;10.70;99.90;;;;;;5050214;28;20424;-39
2022/12/26 08:10:03;;;;;;;5.03;4.47;;;10.80;99.90;;;;;;5042907;28;20603;-38
2022/12/26 08:12:30;;;;;;;4.27;3.87;;;10.80;99.90;;;;;;5040826;28;20717;-38
2022/12/26 08:14:56;;;;;;;4.43;4.03;;;10.80;99.90;;;;;;5038615;28;20561;-35
2022/12/26 08:17:22;;;;;;;4.10;3.70;;;10.80;99.90;;;;;;5037769;28;20487;-39
2022/12/26 08:19:47;;;;;;;3.37;3.07;;;10.80;99.90;;;;;;5044521;28;20184;-38
2022/12/26 08:22:13;;;;;;;4.07;3.67;;;10.80;99.90;;;;;;5050277;28;20263;-38
2022/12/26 08:24:38;;;;;;;2.83;2.50;;;10.80;99.90;;;;;;5035642;28;20187;-36
2022/12/26 08:27:04;;;;;;;2.90;2.70;;;10.80;99.90;;;;;;5039991;28;20664;-35
2022/12/26 08:29:30;;;;;;;3.10;2.70;;;10.80;99.90;;;;;;5039187;28;20711;-36
2022/12/26 08:31:55;;;;;;;3.43;2.57;;;10.80;99.90;;;;;;5047892;28;20207;-36
2022/12/26 08:34:21;;;;;;;6.87;3.07;;;10.70;99.90;;;;;;5048070;28;20254;-38
2022/12/26 08:36:50;;;;;;;2.60;2.40;;;10.70;99.90;;;;;;5049917;28;20323;-39
2022/12/26 08:39:16;;;;;;;3.40;2.53;;;10.70;99.90;;;;;;5043902;28;20213;-37
2022/12/26 08:41:42;;;;;;;2.57;2.27;;;10.70;99.90;;;;;;5034517;28;20530;-37
2022/12/26 08:44:11;;;;;;;1.80;1.70;;;10.70;99.90;;;;;;5040523;28;21015;-38
2022/12/26 08:46:37;;;;;;;2.47;2.07;;;10.80;99.90;;;;;;5045973;28;20228;-37
2022/12/26 08:49:03;;;;;;;2.37;1.83;;;10.80;99.90;;;;;;5040330;28;21002;-37
2022/12/26 08:51:28;;;;;;;1.97;1.60;;;10.80;99.90;;;;;;5042719;28;20369;-41
2022/12/26 08:53:54;;;;;;;2.27;2.07;;;10.80;99.90;;;;;;5040774;28;20245;-41
2022/12/26 08:56:23;;;;;;;4.10;2.13;;;10.70;99.90;;;;;;5035881;28;20288;-39
2022/12/26 08:58:49;;;;;;;3.23;1.80;;;10.80;99.90;;;;;;5034662;28;20210;-34
2022/12/26 09:01:23;;;;;;;2.60;1.67;;;10.80;99.90;;;;;;5037043;28;20460;-39
2022/12/26 09:03:52;;;;;;;1.30;1.20;;;10.70;99.90;;;;;;5042723;28;20210;-39
2022/12/26 09:06:19;;;;;;;1.73;1.10;;;10.70;99.90;;;;;;5038786;28;20446;-37
2022/12/26 09:08:44;;;;;;;1.80;1.07;;;10.70;99.90;;;;;;5041800;28;20989;-37
2022/12/26 09:11:15;;;;;;;2.50;1.13;;;10.80;99.90;;;;;;5038936;28;20588;-39
2022/12/26 09:13:43;;;;;;;1.10;1.00;;;10.80;99.90;;;;;;5036792;28;20210;-37
2022/12/26 09:16:20;;;;;;;2.53;1.33;;;10.80;99.90;;;;;;5043851;28;20456;-39
2022/12/26 09:18:47;;;;;;;1.43;0.97;;;10.80;99.90;;;;;;5039498;28;20804;-39
2022/12/26 09:21:16;;;;;;;1.70;1.17;;;10.80;99.90;;;;;;5043463;28;20482;-39
2022/12/26 09:23:42;;;;;;;1.87;1.20;;;10.70;99.90;;;;;;5033283;28;20452;-37
2022/12/26 09:26:12;;;;;;;1.90;1.50;;;10.80;99.90;;;;;;5040040;28;20715;-40
2022/12/26 09:28:38;;;;;;;3.90;1.70;;;10.80;99.90;;;;;;5039320;28;20441;-38
2022/12/26 09:31:07;;;;;;;1.80;1.53;;;10.70;99.90;;;;;;5041479;28;20530;-37
2022/12/26 09:33:36;;;;;;;2.73;1.33;;;10.80;99.90;;;;;;5044084;28;20709;-41
2022/12/26 09:36:05;;;;;;;2.80;1.20;;;10.80;99.90;;;;;;5041222;28;20452;-41
2022/12/26 09:38:31;;;;;;;2.20;1.07;;;10.80;99.90;;;;;;5037336;28;20467;-35
2022/12/26 09:41:08;;;;;;;1.20;1.00;;;10.70;99.90;;;;;;5043039;28;20448;-37
2022/12/26 09:43:40;;;;;;;1.33;1.00;;;10.80;99.90;;;;;;5040245;28;20452;-38
2022/12/26 09:46:17;;;;;;;3.27;1.40;;;10.80;99.90;;;;;;5036346;28;20595;-36
2022/12/26 09:49:01;;;;;;;1.33;1.23;;;10.80;99.90;;;;;;5041638;28;20816;-36
2022/12/26 09:51:29;;;;;;;5.63;1.47;;;10.80;99.90;;;;;;5037819;28;20433;-38
2022/12/26 09:53:56;;;;;;;2.00;1.20;;;10.80;99.90;;;;;;5042249;28;20549;-34
2022/12/26 09:56:25;;;;;;;4.10;1.33;;;10.80;99.90;;;;;;5038989;28;20575;-39
2022/12/26 09:58:57;;;;;;;4.20;1.47;;;10.80;99.90;;;;;;5031663;28;20440;-38
2022/12/26 10:01:33;;;;;;;2.10;1.17;;;10.80;99.90;;;;;;5044606;28;20996;-41
2022/12/26 10:04:01;;;;;;;3.13;1.30;;;10.90;99.90;;;;;;5041500;28;20461;-36
2022/12/26 10:06:32;;;;;;;3.10;1.27;;;10.90;99.90;;;;;;5029168;28;21013;-39
2022/12/26 10:09:19;;;;;;;6.60;1.60;;;10.90;99.90;;;;;;5041985;28;20440;-35
2022/12/26 10:12:03;;;;;;;4.00;1.93;;;11.00;99.90;;;;;;5034095;28;20451;-38
2022/12/26 10:14:37;;;;;;;6.53;1.60;;;11.10;99.90;;;;;;5027679;28;20464;-37
2022/12/26 10:17:33;;;;;;;1.40;1.30;;;11.10;99.90;;;;;;5040040;28;20483;-35
2022/12/26 10:20:10;;;;;;;2.43;1.20;;;11.10;99.90;;;;;;5039170;28;20474;-37
2022/12/26 10:22:54;;;;;;;1.97;1.23;;;11.10;99.90;;;;;;5044354;28;20544;-40
2022/12/26 10:25:41;;;;;;;1.67;1.40;;;11.00;99.90;;;;;;5025298;28;20459;-36
2022/12/26 10:28:16;;;;;;;1.57;1.47;;;11.00;99.90;;;;;;5043911;28;20580;-36
2022/12/26 10:30:43;;;;;;;3.43;2.17;;;11.00;99.90;;;;;;5039975;28;20462;-35
2022/12/26 10:33:19;;;;;;;2.47;1.13;;;11.00;99.90;;;;;;5043484;28;20582;-41
2022/12/26 10:35:46;;;;;;;3.33;1.40;;;11.00;99.90;;;;;;5042434;28;20451;-36
2022/12/26 10:38:49;;;;;;;2.67;1.80;;;11.00;99.90;;;;;;5046308;28;20420;-37
2022/12/26 10:41:44;;;;;;;2.80;1.20;;;11.00;99.90;;;;;;5039825;28;20993;-35
2022/12/26 10:44:14;;;;;;;1.33;1.20;;;11.00;99.90;;;;;;5045311;28;20416;-40
2022/12/26 10:46:51;;;;;;;3.57;1.20;;;11.00;99.90;;;;;;5043225;28;20428;-34
2022/12/26 10:49:21;;;;;;;1.73;1.10;;;11.00;99.90;;;;;;5046947;28;20411;-39
2022/12/26 10:51:48;;;;;;;3.80;1.30;;;11.00;99.90;;;;;;5048096;28;20420;-36
2022/12/26 10:54:18;;;;;;;1.50;0.93;;;11.00;99.90;;;;;;5046946;28;20423;-36
2022/12/26 10:56:48;;;;;;;1.20;1.10;;;11.00;99.90;;;;;;5046823;28;20488;-37
2022/12/26 10:59:18;;;;;;;3.90;1.30;;;11.00;99.90;;;;;;5046971;28;20442;-37
2022/12/26 11:01:47;;;;;;;3.03;1.67;;;11.00;99.90;;;;;;5048360;28;20464;-38
2022/12/26 11:04:21;;;;;;;1.40;1.10;;;11.00;99.90;;;;;;5042090;28;20443;-40
2022/12/26 11:06:51;;;;;;;1.53;1.27;;;11.00;99.90;;;;;;5046834;28;20424;-37
2022/12/26 11:09:40;;;;;;;2.03;1.20;;;11.00;99.90;;;;;;5044119;28;20408;-35
2022/12/26 11:12:24;;;;;;;2.63;1.40;;;11.00;99.90;;;;;;5042840;28;20413;-35
2022/12/26 11:15:00;;;;;;;5.37;1.17;;;11.00;99.90;;;;;;5029771;28;20479;-35
2022/12/26 11:17:41;;;;;;;3.50;1.40;;;11.00;99.90;;;;;;5047238;28;20416;-39
2022/12/26 11:20:10;;;;;;;2.07;1.50;;;11.00;99.90;;;;;;5047499;28;20416;-40
2022/12/26 11:22:35;;;;;;;1.30;1.10;;;10.90;99.90;;;;;;5047394;28;20958;-38
2022/12/26 11:25:08;;;;;;;1.87;1.30;;;11.00;99.90;;;;;;5047869;28;20431;-34
2022/12/26 11:27:35;;;;;;;3.80;1.20;;;11.00;99.90;;;;;;5051404;28;20178;-39
2022/12/26 11:30:24;;;;;;;3.00;1.30;;;11.00;99.90;;;;;;5050632;28;20416;-38
2022/12/26 11:33:02;;;;;;;2.20;1.13;;;10.90;99.90;;;;;;5047860;28;20432;-37
2022/12/26 11:35:33;;;;;;;3.37;1.40;;;10.90;99.90;;;;;;5050659;28;20408;-40
2022/12/26 11:38:00;;;;;;;5.23;2.50;;;10.90;99.90;;;;;;5051099;28;20494;-38
2022/12/26 11:40:37;;;;;;;2.77;1.23;;;10.90;99.90;;;;;;5049129;28;20470;-36
2022/12/26 11:43:06;;;;;;;2.57;1.50;;;10.90;99.90;;;;;;5030514;28;20488;-35
2022/12/26 11:45:40;;;;;;;1.43;1.10;;;11.00;99.90;;;;;;5030216;28;20844;-36
2022/12/26 11:48:17;;;;;;;3.40;1.30;;;11.00;99.90;;;;;;5031155;28;20851;-34
2022/12/26 11:50:45;;;;;;;2.83;1.53;;;11.00;99.90;;;;;;5030716;28;20428;-38
2022/12/26 11:53:16;;;;;;;2.20;1.50;;;11.00;99.90;;;;;;5030345;28;20417;-38
2022/12/26 11:55:42;;;;;;;1.77;1.20;;;10.90;99.90;;;;;;5030548;28;20853;-38
2022/12/26 11:58:08;;;;;;;2.33;1.30;;;11.00;99.90;;;;;;5030539;28;20484;-41
2022/12/26 12:01:04;;;;;;;1.40;1.00;;;10.90;99.90;;;;;;5030899;28;20966;-38
2022/12/26 12:03:48;;;;;;;1.80;1.27;;;10.90;99.90;;;;;;5029817;28;20183;-37
2022/12/26 12:06:34;;;;;;;1.93;1.53;;;10.90;99.90;;;;;;5030929;28;20422;-37
2022/12/26 12:09:28;;;;;;;2.97;1.33;;;10.90;99.90;;;;;;5030405;28;20452;-38
2022/12/26 12:12:09;;;;;;;2.60;1.53;;;10.90;99.90;;;;;;5036428;28;20456;-35
2022/12/26 12:15:08;;;;;;;2.07;1.30;;;11.00;99.90;;;;;;5049229;28;20481;-36
2022/12/26 12:17:58;;;;;;;2.83;1.30;;;10.90;99.90;;;;;;5050505;28;20439;-38
2022/12/26 12:20:54;;;;;;;3.60;1.37;;;10.90;99.90;;;;;;5050122;28;20756;-35
2022/12/26 12:23:46;;;;;;;2.20;1.40;;;11.00;99.90;;;;;;5049582;28;20531;-38
2022/12/26 12:26:25;;;;;;;1.97;1.23;;;10.90;99.90;;;;;;5048159;28;20446;-40
2022/12/26 12:29:13;;;;;;;2.70;1.47;;;11.00;99.90;;;;;;5050128;28;20454;-38
2022/12/26 12:31:44;;;;;;;1.30;1.20;;;10.90;99.90;;;;;;5049593;28;20549;-41
2022/12/26 12:35:01;;;;;;;2.80;1.60;;;11.00;99.90;;;;;;5049152;28;20412;-39
2022/12/26 12:37:48;;;;;;;1.50;1.10;;;11.00;99.90;;;;;;5039553;28;20424;-39
2022/12/26 12:40:44;;;;;;;3.43;1.30;;;11.10;99.90;;;;;;5050230;28;20470;-34
2022/12/26 12:43:26;;;;;;;2.77;1.50;;;11.10;99.90;;;;;;5028830;28;20455;-38
2022/12/26 12:46:04;;;;;;;2.27;1.60;;;11.10;99.90;;;;;;5029699;28;20427;-38
2022/12/26 12:48:58;;;;;;;2.93;1.37;;;11.10;99.90;;;;;;5029409;28;20410;-40
2022/12/26 12:51:40;;;;;;;3.20;1.57;;;11.10;99.90;;;;;;5030189;28;20417;-39
2022/12/26 12:54:43;;;;;;;1.63;1.20;;;11.10;99.90;;;;;;5028455;28;21029;-37
2022/12/26 12:57:56;;;;;;;2.60;1.67;;;11.10;99.90;;;;;;5029588;28;20449;-36
2022/12/26 13:00:26;;;;;;;2.00;1.53;;;11.00;99.90;;;;;;5012922;28;20905;-37
2022/12/26 13:03:19;;;;;;;1.93;1.70;;;11.00;99.90;;;;;;5031769;28;20520;-40
2022/12/26 13:06:13;;;;;;;1.30;1.10;;;10.90;99.90;;;;;;5045882;28;20926;-35
2022/12/26 13:08:54;;;;;;;4.43;1.80;;;10.70;99.90;;;;;;5035992;28;20433;-37
2022/12/26 13:11:44;;;;;;;1.60;1.00;;;10.60;99.90;;;;;;5041165;28;20462;-35
2022/12/26 13:14:21;;;;;;;2.00;1.40;;;10.50;99.90;;;;;;5033750;28;20449;-39
2022/12/26 13:17:27;;;;;;;1.70;1.23;;;10.40;99.90;;;;;;5037427;28;20415;-39
2022/12/26 13:20:20;;;;;;;5.73;1.40;;;10.30;99.90;;;;;;5037090;28;20433;-39
2022/12/26 13:25:42;;;;;;;3.63;1.93;;;10.20;99.90;;;;;;5043663;28;20528;-33
2022/12/26 13:28:17;;;;;;;5.87;3.00;;;10.20;99.90;;;;;;5048369;28;20444;-36
2022/12/26 13:30:43;;;;;;;3.93;2.50;;;10.20;99.90;;;;;;5047326;28;20424;-39
2022/12/26 13:33:14;;;;;;;5.63;2.40;;;10.20;99.90;;;;;;5047565;28;20431;-36
2022/12/26 13:35:56;;;;;;;5.17;2.70;;;10.20;99.90;;;;;;5048554;28;20563;-39
2022/12/26 13:38:24;;;;;;;5.97;2.60;;;10.20;99.90;;;;;;5047907;28;20416;-37
2022/12/26 13:43:53;;;;;;;7.20;3.60;;;10.10;99.90;;;;;;5048818;28;20778;-37
2022/12/26 13:44:22;;;;;;;5.63;3.20;;;10.10;99.90;;;;;;5045714;28;20428;-40
2022/12/26 13:46:47;;;;;;;6.63;3.70;;;10.10;99.90;;;;;;5047562;28;20408;-35
2022/12/26 13:49:35;;;;;;;9.87;3.90;;;10.00;99.90;;;;;;5046365;28;20427;-38
2022/12/26 13:52:10;;;;;;;11.80;4.30;;;9.90;99.90;;;;;;5047331;28;21186;-36
2022/12/26 13:54:51;;;;;;;8.40;4.57;;;9.90;99.90;;;;;;5046314;28;20466;-38
2022/12/26 13:57:40;;;;;;;5.27;3.87;;;10.00;99.90;;;;;;5045600;28;20593;-38
2022/12/26 14:00:42;;;;;;;8.30;3.90;;;10.00;99.90;;;;;;5039988;28;20493;-35
2022/12/26 14:03:08;;;;;;;8.63;3.53;;;10.00;99.90;;;;;;5042053;28;20559;-36
2022/12/26 14:06:25;;;;;;;6.30;4.70;;;9.60;99.90;;;;;;5048339;28;20432;-36
2022/12/26 14:09:05;;;;;;;5.57;4.03;;;10.00;99.90;;;;;;5015823;28;20614;-36
2022/12/26 14:12:06;;;;;;;4.67;4.20;;;9.90;99.90;;;;;;5033314;28;20423;-40
2022/12/26 14:14:55;;;;;;;7.33;4.00;;;9.90;99.90;;;;;;5020719;28;20476;-38
2022/12/26 14:17:47;;;;;;;7.53;4.60;;;9.90;99.90;;;;;;5041381;28;20415;-41
2022/12/26 14:20:18;;;;;;;3.90;3.50;;;9.90;99.90;;;;;;5044225;28;20412;-37
2022/12/26 14:23:10;;;;;;;8.00;4.60;;;9.90;99.90;;;;;;5046839;28;20451;-40
2022/12/26 14:25:56;;;;;;;6.03;3.50;;;9.80;99.90;;;;;;5025208;28;20448;-39
2022/12/26 14:28:35;;;;;;;9.60;4.27;;;9.80;99.90;;;;;;5046606;28;20423;-39
2022/12/26 14:31:29;;;;;;;7.80;3.83;;;9.80;99.90;;;;;;5045163;28;20420;-38
2022/12/26 14:34:00;;;;;;;7.33;4.60;;;9.80;99.90;;;;;;5045289;28;20957;-40
2022/12/26 14:36:43;;;;;;;7.30;4.30;;;9.80;99.90;;;;;;5047835;28;20416;-37
2022/12/26 14:39:43;;;;;;;28.53;22.83;;;9.80;99.90;;;;;;5048447;28;20876;-38
2022/12/26 14:45:27;;;;;;;6.03;4.00;;;9.70;99.90;;;;;;5047358;28;20417;-35
2022/12/26 14:47:53;;;;;;;9.20;4.37;;;9.70;99.90;;;;;;5043094;28;20412;-35
2022/12/26 14:50:31;;;;;;;5.93;3.77;;;9.70;99.90;;;;;;5045319;28;20428;-42
2022/12/26 14:53:23;;;;;;;8.43;4.40;;;9.70;99.90;;;;;;5045414;28;20469;-37
2022/12/26 14:55:52;;;;;;;9.17;4.20;;;9.60;99.90;;;;;;5034643;28;20845;-38
2022/12/26 14:58:43;;;;;;;5.60;3.40;;;9.60;99.90;;;;;;5049459;28;20428;-40
2022/12/26 15:01:11;;;;;;;8.03;3.47;;;9.50;99.90;;;;;;5049178;28;20423;-41
2022/12/26 15:03:58;;;;;;;5.20;3.20;;;9.50;99.90;;;;;;5049227;28;20412;-38
2022/12/26 15:06:42;;;;;;;12.03;4.80;;;9.50;99.90;;;;;;5048539;28;20583;-37
2022/12/26 15:09:27;;;;;;;7.50;3.73;;;9.40;99.90;;;;;;5050819;28;20404;-34
2022/12/26 15:11:59;;;;;;;5.60;3.53;;;9.40;99.90;;;;;;5050639;28;20424;-38
2022/12/26 15:15:02;;;;;;;6.33;3.43;;;9.40;99.90;;;;;;5049328;28;20461;-37
2022/12/26 15:17:40;;;;;;;7.43;3.40;;;9.40;99.90;;;;;;5008040;28;20441;-38
2022/12/26 15:20:33;;;;;;;6.83;2.70;;;9.30;99.90;;;;;;5024599;28;21006;-35
2022/12/26 15:23:28;;;;;;;4.80;3.70;;;9.50;99.90;;;;;;5049552;28;20547;-40
2022/12/26 15:25:57;;;;;;;6.93;3.83;;;9.30;99.90;;;;;;5049724;28;20836;-37
2022/12/26 15:28:46;;;;;;;7.27;4.00;;;9.30;99.90;;;;;;5051109;28;20851;-39
2022/12/26 15:31:49;;;;;;;5.73;2.87;;;9.30;99.90;;;;;;5050196;28;20419;-39
2022/12/26 15:34:20;;;;;;;3.90;2.77;;;9.30;99.90;;;;;;5050008;28;20412;-39
2022/12/26 15:37:00;;;;;;;5.67;4.00;;;9.40;99.90;;;;;;5051324;28;20423;-39